createdAt,value
2022-11-30T00:01:12.732Z,15.45
2022-11-30T00:03:39.891Z,14.65
2022-11-30T00:06:12.162Z,12.65
2022-11-30T00:08:39.887Z,17.55
2022-11-30T00:11:15.712Z,13.18
2022-11-30T00:13:42.502Z,11.77
2022-11-30T00:16:10.312Z,12.68
2022-11-30T00:18:37.663Z,14.07
2022-11-30T00:21:08.551Z,13.60
2022-11-30T00:23:37.266Z,15.88
2022-11-30T00:26:05.924Z,12.45
2022-11-30T00:28:34.388Z,13.40
2022-11-30T00:31:04.105Z,13.02
2022-11-30T00:33:33.827Z,15.35
2022-11-30T00:36:02.754Z,12.93
2022-11-30T00:38:31.383Z,13.68
2022-11-30T00:40:58.308Z,12.13
2022-11-30T00:43:25.118Z,14.90
2022-11-30T00:45:51.946Z,11.23
2022-11-30T00:48:18.882Z,12.00
2022-11-30T00:50:45.686Z,12.90
2022-11-30T00:53:12.570Z,13.25
2022-11-30T00:55:39.348Z,15.55
2022-11-30T00:58:07.449Z,15.15
2022-11-30T01:00:34.295Z,13.55
2022-11-30T01:03:01.172Z,15.30
2022-11-30T01:05:28.482Z,13.95
2022-11-30T01:07:55.803Z,13.88
2022-11-30T01:10:25.614Z,14.40
2022-11-30T01:12:53.363Z,12.27
2022-11-30T01:15:20.303Z,12.02
2022-11-30T01:17:47.130Z,14.45
2022-11-30T01:20:14.070Z,12.30
2022-11-30T01:22:40.900Z,17.50
2022-11-30T01:25:08.112Z,16.05
2022-11-30T01:27:34.953Z,15.73
2022-11-30T01:30:02.007Z,17.33
2022-11-30T01:32:28.841Z,21.02
2022-11-30T01:34:55.740Z,16.73
2022-11-30T01:37:23.129Z,16.13
2022-11-30T01:39:50.016Z,15.30
2022-11-30T01:42:19.707Z,18.90
2022-11-30T01:45:07.358Z,19.10
2022-11-30T01:47:42.200Z,15.85
2022-11-30T01:50:13.932Z,17.65
2022-11-30T01:52:46.920Z,14.40
2022-11-30T01:55:39.564Z,16.63
2022-11-30T01:58:13.800Z,13.65
2022-11-30T02:00:45.355Z,14.23
2022-11-30T02:03:30.626Z,12.15
2022-11-30T02:05:58.041Z,13.82
2022-11-30T02:08:27.007Z,18.00
2022-11-30T02:10:57.735Z,14.02
2022-11-30T02:13:48.703Z,14.07
2022-11-30T02:16:27.070Z,12.75
2022-11-30T02:18:56.700Z,12.98
2022-11-30T02:21:37.226Z,14.40
2022-11-30T02:24:20.367Z,18.52
2022-11-30T02:27:08.118Z,13.95
2022-11-30T02:29:41.073Z,14.35
2022-11-30T02:32:27.664Z,15.73
2022-11-30T02:34:57.498Z,14.13
2022-11-30T02:37:25.754Z,15.73
2022-11-30T02:39:52.617Z,14.18
2022-11-30T02:42:19.393Z,15.27
2022-11-30T02:44:50.787Z,13.10
2022-11-30T02:47:29.288Z,14.65
2022-11-30T02:50:08.783Z,12.93
2022-11-30T02:52:36.110Z,14.63
2022-11-30T02:55:06.777Z,15.02
2022-11-30T02:57:34.362Z,15.48
2022-11-30T03:00:04.387Z,14.23
2022-11-30T03:02:31.261Z,12.73
2022-11-30T03:04:58.173Z,13.77
2022-11-30T03:07:25.079Z,10.25
2022-11-30T03:09:51.891Z,12.55
2022-11-30T03:12:18.833Z,13.35
2022-11-30T03:14:46.043Z,10.32
2022-11-30T03:17:13.194Z,11.00
2022-11-30T03:19:40.133Z,15.75
2022-11-30T03:22:07.025Z,10.82
2022-11-30T03:24:34.005Z,13.55
2022-11-30T03:27:01.062Z,12.43
2022-11-30T03:29:27.994Z,12.35
2022-11-30T03:31:54.883Z,13.00
2022-11-30T03:34:22.659Z,13.13
2022-11-30T03:36:49.434Z,12.38
2022-11-30T03:39:16.217Z,12.07
2022-11-30T03:41:42.998Z,11.20
2022-11-30T03:44:10.395Z,11.10
2022-11-30T03:46:37.310Z,13.43
2022-11-30T03:49:04.127Z,10.57
2022-11-30T03:51:30.920Z,13.35
2022-11-30T03:53:57.791Z,12.05
2022-11-30T03:56:25.421Z,12.30
2022-11-30T03:58:52.206Z,11.25
2022-11-30T04:01:24.115Z,11.65
2022-11-30T04:03:51.760Z,13.90
2022-11-30T04:06:19.621Z,12.38
2022-11-30T04:08:46.703Z,9.88
2022-11-30T04:11:14.155Z,11.02
2022-11-30T04:13:41.888Z,11.65
2022-11-30T04:16:09.936Z,12.13
2022-11-30T04:18:37.255Z,14.93
2022-11-30T04:21:05.128Z,13.00
2022-11-30T04:23:34.568Z,12.55
2022-11-30T04:26:04.190Z,11.82
2022-11-30T04:28:31.224Z,13.93
2022-11-30T04:31:00.882Z,14.60
2022-11-30T04:33:28.448Z,16.88
2022-11-30T04:35:58.186Z,12.90
2022-11-30T04:38:25.442Z,12.57
2022-11-30T04:40:52.615Z,15.63
2022-11-30T04:43:20.033Z,15.32
2022-11-30T04:45:47.477Z,15.63
2022-11-30T04:48:14.976Z,16.85
2022-11-30T04:50:42.083Z,14.48
2022-11-30T04:53:09.199Z,19.63
2022-11-30T04:55:38.024Z,15.20
2022-11-30T04:58:06.116Z,16.45
2022-11-30T05:00:34.000Z,18.30
2022-11-30T05:03:00.914Z,17.13
2022-11-30T05:05:27.962Z,15.85
2022-11-30T05:07:59.377Z,16.38
2022-11-30T05:10:27.778Z,15.02
2022-11-30T05:12:55.025Z,18.42
2022-11-30T05:15:22.108Z,16.70
2022-11-30T05:17:48.913Z,19.15
2022-11-30T05:20:16.575Z,18.10
2022-11-30T05:22:43.766Z,19.38
2022-11-30T05:25:10.758Z,18.88
2022-11-30T05:27:38.073Z,18.45
2022-11-30T05:30:05.803Z,17.60
2022-11-30T05:32:32.787Z,17.90
2022-11-30T05:34:59.751Z,22.65
2022-11-30T05:37:26.606Z,22.02
2022-11-30T05:39:53.448Z,20.38
2022-11-30T05:42:20.440Z,21.35
2022-11-30T05:44:48.116Z,21.20
2022-11-30T05:47:16.039Z,24.50
2022-11-30T05:49:43.124Z,24.52
2022-11-30T05:52:10.287Z,22.98
2022-11-30T05:54:37.153Z,21.73
2022-11-30T05:57:05.486Z,21.38
2022-11-30T05:59:32.326Z,25.45
2022-11-30T06:01:59.407Z,22.08
2022-11-30T06:04:26.328Z,22.10
2022-11-30T06:06:55.764Z,25.70
2022-11-30T06:09:23.141Z,28.00
2022-11-30T06:11:50.446Z,21.45
2022-11-30T06:14:17.460Z,19.00
2022-11-30T06:16:44.458Z,21.73
2022-11-30T06:19:11.264Z,25.60
2022-11-30T06:21:38.123Z,21.98
2022-11-30T06:24:05.267Z,28.05
2022-11-30T06:26:32.189Z,21.17
2022-11-30T06:28:59.077Z,23.10
2022-11-30T06:31:25.930Z,20.70
2022-11-30T06:33:55.936Z,21.95
2022-11-30T06:36:23.295Z,21.98
2022-11-30T06:38:50.801Z,18.95
2022-11-30T06:41:18.335Z,21.15
2022-11-30T06:43:45.267Z,22.73
2022-11-30T06:46:12.617Z,22.55
2022-11-30T06:48:39.733Z,18.05
2022-11-30T06:51:10.545Z,18.00
2022-11-30T06:53:37.755Z,17.52
2022-11-30T06:56:09.939Z,20.42
2022-11-30T06:58:40.910Z,20.13
2022-11-30T07:01:12.602Z,15.95
2022-11-30T07:03:40.438Z,18.92
2022-11-30T07:06:14.580Z,18.50
2022-11-30T07:08:43.214Z,17.48
2022-11-30T07:11:11.774Z,18.17
2022-11-30T07:13:39.024Z,18.48
2022-11-30T07:16:07.612Z,15.90
2022-11-30T07:18:34.986Z,16.30
2022-11-30T07:21:03.387Z,16.92
2022-11-30T07:23:55.515Z,16.92
2022-11-30T07:26:23.614Z,15.45
2022-11-30T07:28:54.842Z,17.40
2022-11-30T07:31:25.307Z,14.52
2022-11-30T07:33:52.951Z,14.70
2022-11-30T07:36:21.678Z,15.00
2022-11-30T07:38:49.545Z,14.70
2022-11-30T07:41:16.454Z,19.08
2022-11-30T07:43:43.464Z,20.50
2022-11-30T07:46:13.212Z,17.02
2022-11-30T07:48:40.726Z,17.63
2022-11-30T07:51:13.616Z,14.73
2022-11-30T07:53:40.538Z,15.70
2022-11-30T07:56:12.205Z,16.23
2022-11-30T07:58:40.030Z,13.43
2022-11-30T08:01:09.653Z,14.90
2022-11-30T08:03:37.532Z,16.65
2022-11-30T08:06:11.554Z,15.05
2022-11-30T08:08:41.012Z,14.45
2022-11-30T08:11:09.584Z,14.07
2022-11-30T08:13:36.787Z,14.75
2022-11-30T08:16:09.140Z,13.15
2022-11-30T08:18:36.919Z,13.95
2022-11-30T08:21:06.040Z,13.68
2022-11-30T08:23:35.657Z,12.25
2022-11-30T08:26:09.812Z,12.48
2022-11-30T08:28:37.065Z,10.35
2022-11-30T08:31:06.910Z,14.00
2022-11-30T08:33:36.399Z,11.93
2022-11-30T08:36:13.649Z,12.93
2022-11-30T08:38:41.682Z,11.90
2022-11-30T08:41:09.975Z,12.25
2022-11-30T08:43:36.902Z,15.00
2022-11-30T08:46:27.342Z,10.98
2022-11-30T08:49:12.530Z,12.27
2022-11-30T08:52:08.615Z,13.05
2022-11-30T08:54:27.746Z,13.38
2022-11-30T08:56:54.559Z,10.02
2022-11-30T08:59:21.381Z,11.00
2022-11-30T09:01:48.308Z,9.98
2022-11-30T09:04:15.093Z,11.82
2022-11-30T09:06:41.985Z,11.48
2022-11-30T09:09:08.957Z,10.73
2022-11-30T09:11:35.788Z,11.18
2022-11-30T09:14:08.052Z,9.65
2022-11-30T09:16:35.669Z,10.02
2022-11-30T09:19:02.811Z,8.93
2022-11-30T09:21:29.867Z,11.88
2022-11-30T09:23:57.269Z,10.70
2022-11-30T09:26:25.327Z,9.63
2022-11-30T09:28:53.402Z,15.00
2022-11-30T09:31:25.183Z,11.23
2022-11-30T09:33:53.234Z,10.65
2022-11-30T09:36:21.855Z,9.02
2022-11-30T09:38:49.299Z,7.90
2022-11-30T09:41:34.552Z,8.63
2022-11-30T09:44:25.533Z,8.55
2022-11-30T09:46:58.115Z,10.15
2022-11-30T09:49:34.059Z,9.20
2022-11-30T09:52:04.529Z,10.48
2022-11-30T09:54:38.970Z,10.13
2022-11-30T10:00:12.457Z,8.80
2022-11-30T10:02:42.901Z,8.50
2022-11-30T10:05:12.995Z,8.10
2022-11-30T10:07:42.887Z,11.63
2022-11-30T10:10:35.361Z,10.65
2022-11-30T10:13:25.254Z,8.75
2022-11-30T10:16:21.061Z,9.60
2022-11-30T10:19:15.850Z,8.57
2022-11-30T10:22:06.662Z,9.88
2022-11-30T10:24:42.346Z,7.25
2022-11-30T10:27:16.975Z,10.45
2022-11-30T10:29:44.349Z,10.25
2022-11-30T10:32:19.723Z,10.27
2022-11-30T10:34:54.846Z,9.57
2022-11-30T10:37:36.104Z,10.65
2022-11-30T10:40:36.231Z,12.48
2022-11-30T10:43:24.824Z,10.73
2022-11-30T10:45:51.753Z,8.82
2022-11-30T10:48:37.788Z,10.38
2022-11-30T10:51:04.700Z,10.55
2022-11-30T10:53:33.425Z,10.93
2022-11-30T10:56:14.525Z,11.30
2022-11-30T10:59:01.612Z,11.77
2022-11-30T11:01:35.854Z,8.95
2022-11-30T11:04:19.469Z,9.52
2022-11-30T11:07:08.380Z,11.05
2022-11-30T11:09:47.052Z,9.23
2022-11-30T11:12:46.104Z,9.18
2022-11-30T11:15:30.814Z,10.57
2022-11-30T11:21:16.540Z,8.40
2022-11-30T11:23:44.713Z,9.07
2022-11-30T11:26:21.200Z,8.15
2022-11-30T11:28:50.342Z,8.88
2022-11-30T11:31:33.423Z,10.90
2022-11-30T11:34:00.335Z,9.52
2022-11-30T11:36:33.289Z,10.95
2022-11-30T11:39:00.945Z,10.45
2022-11-30T11:41:34.958Z,11.18
2022-11-30T11:44:04.585Z,10.70
2022-11-30T11:46:33.245Z,10.00
2022-11-30T11:49:26.178Z,11.48
2022-11-30T11:52:11.270Z,9.25
2022-11-30T11:55:06.067Z,9.70
2022-11-30T11:57:53.287Z,10.52
2022-11-30T12:00:23.327Z,9.63
2022-11-30T12:03:14.322Z,9.60
2022-11-30T12:06:01.692Z,8.98
2022-11-30T12:08:47.652Z,9.77
2022-11-30T12:11:17.765Z,8.70
2022-11-30T12:13:46.344Z,9.40
2022-11-30T12:16:15.998Z,9.88
2022-11-30T12:18:50.938Z,8.63
2022-11-30T12:21:42.682Z,10.55
2022-11-30T12:24:23.468Z,10.32
2022-11-30T12:26:57.095Z,9.63
2022-11-30T12:29:32.788Z,8.88
2022-11-30T12:32:23.158Z,9.00
2022-11-30T12:35:29.310Z,10.18
2022-11-30T12:38:13.324Z,7.57
2022-11-30T12:41:15.147Z,8.32
2022-11-30T12:44:04.231Z,7.80
2022-11-30T12:46:43.034Z,8.55
2022-11-30T12:49:15.913Z,9.02
2022-11-30T12:52:01.677Z,7.70
2022-11-30T12:54:41.247Z,7.70
2022-11-30T12:57:22.896Z,8.63
2022-11-30T13:00:06.655Z,8.80
2022-11-30T13:02:45.658Z,8.45
2022-11-30T13:05:21.278Z,7.88
2022-11-30T13:08:05.405Z,9.23
2022-11-30T13:10:42.921Z,9.73
2022-11-30T13:13:19.155Z,9.75
2022-11-30T13:15:47.684Z,8.40
2022-11-30T13:18:19.493Z,8.35
2022-11-30T13:21:06.867Z,8.05
2022-11-30T13:23:41.652Z,8.40
2022-11-30T13:26:42.329Z,9.55
2022-11-30T13:29:33.343Z,10.18
2022-11-30T13:32:27.511Z,7.47
2022-11-30T13:35:29.321Z,7.75
2022-11-30T13:41:03.223Z,9.07
2022-11-30T13:43:51.519Z,8.07
2022-11-30T13:46:23.848Z,8.32
2022-11-30T13:49:22.780Z,10.27
2022-11-30T13:52:13.210Z,8.27
2022-11-30T13:54:48.437Z,7.85
2022-11-30T13:57:38.371Z,7.15
2022-11-30T14:00:30.753Z,8.07
2022-11-30T14:03:23.138Z,7.00
2022-11-30T14:05:54.540Z,6.40
2022-11-30T14:08:21.303Z,7.90
2022-11-30T14:10:50.657Z,8.07
2022-11-30T14:13:22.516Z,7.70
2022-11-30T14:16:02.301Z,8.82
2022-11-30T14:18:42.012Z,6.75
2022-11-30T14:21:22.932Z,7.45
2022-11-30T14:24:01.061Z,7.63
2022-11-30T14:26:37.221Z,7.57
2022-11-30T14:29:16.725Z,7.30
2022-11-30T14:32:06.468Z,7.22
2022-11-30T14:34:45.811Z,6.72
2022-11-30T14:37:22.044Z,6.78
2022-11-30T14:39:50.576Z,7.43
2022-11-30T14:42:23.471Z,7.05
2022-11-30T14:44:50.901Z,7.32
2022-11-30T14:47:25.444Z,6.60
2022-11-30T14:49:55.122Z,6.55
2022-11-30T14:52:46.298Z,7.50
2022-11-30T14:55:29.308Z,6.55
2022-11-30T14:58:21.605Z,6.38
2022-11-30T15:00:50.368Z,7.88
2022-11-30T15:03:27.762Z,7.85
2022-11-30T15:05:58.627Z,6.72
2022-11-30T15:08:38.837Z,6.28
2022-11-30T15:11:09.345Z,7.03
2022-11-30T15:13:42.600Z,5.85
2022-11-30T15:16:22.097Z,6.15
2022-11-30T15:18:49.703Z,7.10
2022-11-30T15:21:24.140Z,5.78
2022-11-30T15:26:30.404Z,4.65
2022-11-30T15:29:12.564Z,5.65
2022-11-30T15:31:44.183Z,5.47
2022-11-30T15:34:40.584Z,5.57
2022-11-30T15:37:07.774Z,7.15
2022-11-30T15:39:34.785Z,6.03
2022-11-30T15:42:04.277Z,5.72
2022-11-30T15:44:45.216Z,5.97
2022-11-30T15:47:27.550Z,6.38
2022-11-30T15:49:55.799Z,6.05
2022-11-30T15:52:28.794Z,6.22
2022-11-30T15:54:58.922Z,11.80
2022-11-30T15:57:27.128Z,7.00
2022-11-30T16:00:24.056Z,9.35
2022-11-30T16:03:07.971Z,7.75
2022-11-30T16:05:35.005Z,7.47
2022-11-30T16:08:03.732Z,9.05
2022-11-30T16:10:36.691Z,8.80
2022-11-30T16:13:04.598Z,8.40
2022-11-30T16:15:36.669Z,7.97
2022-11-30T16:18:23.043Z,10.02
2022-11-30T16:21:00.771Z,9.15
2022-11-30T16:23:28.655Z,10.05
2022-11-30T16:25:56.156Z,8.00
2022-11-30T16:28:23.173Z,9.75
2022-11-30T16:30:50.748Z,8.63
2022-11-30T16:33:24.482Z,11.50
2022-11-30T16:36:02.899Z,9.07
2022-11-30T16:38:29.791Z,9.05
2022-11-30T16:41:23.548Z,10.02
2022-11-30T16:43:52.234Z,9.73
2022-11-30T16:46:27.259Z,8.68
2022-11-30T16:48:55.163Z,8.10
2022-11-30T16:51:34.531Z,9.25
2022-11-30T16:54:01.595Z,9.88
2022-11-30T16:56:28.627Z,11.68
2022-11-30T16:58:55.550Z,10.13
2022-11-30T17:01:54.987Z,10.68
2022-11-30T17:04:24.383Z,11.50
2022-11-30T17:06:54.797Z,11.10
2022-11-30T17:09:26.922Z,11.27
2022-11-30T17:11:53.827Z,11.75
2022-11-30T17:14:22.200Z,10.82
2022-11-30T17:16:49.225Z,11.02
2022-11-30T17:19:16.220Z,12.30
2022-11-30T17:21:44.691Z,19.40
2022-11-30T17:24:12.403Z,13.57
2022-11-30T17:26:39.421Z,16.23
2022-11-30T17:29:06.694Z,16.63
2022-11-30T17:31:33.736Z,15.35
2022-11-30T17:34:00.634Z,16.05
2022-11-30T17:36:29.350Z,12.90
2022-11-30T17:38:56.723Z,12.70
2022-11-30T17:41:23.862Z,14.38
2022-11-30T17:43:51.999Z,12.60
2022-11-30T17:46:19.409Z,13.52
2022-11-30T17:48:46.434Z,12.55
2022-11-30T17:51:13.720Z,12.13
2022-11-30T17:53:42.605Z,14.07
2022-11-30T17:56:12.771Z,13.52
2022-11-30T17:58:43.850Z,12.50
2022-11-30T18:01:25.379Z,11.45
2022-11-30T18:03:53.978Z,11.85
2022-11-30T18:06:21.080Z,11.77
2022-11-30T18:08:48.154Z,11.13
2022-11-30T18:11:22.863Z,11.45
2022-11-30T18:13:54.546Z,11.75
2022-11-30T18:16:26.863Z,10.30
2022-11-30T18:18:56.325Z,9.18
2022-11-30T18:21:24.453Z,9.55
2022-11-30T18:23:53.123Z,8.73
2022-11-30T18:26:22.427Z,9.27
2022-11-30T18:28:54.352Z,10.20
2022-11-30T18:31:21.717Z,10.00
2022-11-30T18:33:48.801Z,9.48
2022-11-30T18:36:15.749Z,9.50
2022-11-30T18:38:43.957Z,8.88
2022-11-30T18:41:10.740Z,8.20
2022-11-30T18:43:38.494Z,7.85
2022-11-30T18:46:11.146Z,7.53
2022-11-30T18:48:39.493Z,8.85
2022-11-30T18:51:13.828Z,8.40
2022-11-30T18:56:09.620Z,6.32
2022-11-30T18:58:36.684Z,6.65
2022-11-30T19:01:08.377Z,7.13
2022-11-30T19:03:36.252Z,7.95
2022-11-30T19:06:05.621Z,7.25
2022-11-30T19:08:33.340Z,11.65
2022-11-30T19:11:05.412Z,7.07
2022-11-30T19:13:33.510Z,5.63
2022-11-30T19:16:06.234Z,6.65
2022-11-30T19:18:33.465Z,7.13
2022-11-30T19:21:00.382Z,6.55
2022-11-30T19:23:28.253Z,6.07
2022-11-30T19:26:00.767Z,6.85
2022-11-30T19:28:30.173Z,6.47
2022-11-30T19:30:57.884Z,5.47
2022-11-30T19:33:25.879Z,6.72
2022-11-30T19:35:53.078Z,6.03
2022-11-30T19:38:19.836Z,6.40
2022-11-30T19:40:46.603Z,5.53
2022-11-30T19:43:13.786Z,6.80
2022-11-30T19:45:41.110Z,6.55
2022-11-30T19:48:08.006Z,6.22
2022-11-30T19:50:34.793Z,8.00
2022-11-30T19:53:01.695Z,5.63
2022-11-30T19:55:28.552Z,6.18
2022-11-30T19:57:55.732Z,7.47
2022-11-30T20:00:22.746Z,6.32
2022-11-30T20:02:50.267Z,5.68
2022-11-30T20:05:17.882Z,5.13
2022-11-30T20:07:44.983Z,5.45
2022-11-30T20:10:14.990Z,6.50
2022-11-30T20:12:43.014Z,8.90
2022-11-30T20:15:10.659Z,8.98
2022-11-30T20:17:37.930Z,8.30
2022-11-30T20:20:05.654Z,5.90
2022-11-30T20:22:33.684Z,8.07
2022-11-30T20:25:00.608Z,6.75
2022-11-30T20:27:27.792Z,6.85
2022-11-30T20:29:56.247Z,6.72
2022-11-30T20:32:23.874Z,7.20
2022-11-30T20:34:51.272Z,9.70
2022-11-30T20:37:18.887Z,6.55
2022-11-30T20:39:46.505Z,8.57
2022-11-30T20:42:13.826Z,8.10
2022-11-30T20:44:41.098Z,7.85
2022-11-30T20:47:08.895Z,7.80
2022-11-30T20:49:36.648Z,7.30
2022-11-30T20:52:04.327Z,7.07
2022-11-30T20:54:31.635Z,8.27
2022-11-30T20:56:58.982Z,6.68
2022-11-30T20:59:26.804Z,6.78
2022-11-30T21:01:55.818Z,8.38
2022-11-30T21:04:27.510Z,8.75
2022-11-30T21:06:54.920Z,9.02
2022-11-30T21:09:21.967Z,7.13
2022-11-30T21:11:49.170Z,7.88
2022-11-30T21:14:17.840Z,6.15
2022-11-30T21:16:44.869Z,7.55
2022-11-30T21:19:13.032Z,6.47
2022-11-30T21:21:39.970Z,6.07
2022-11-30T21:24:08.765Z,6.40
2022-11-30T21:26:42.930Z,6.70
2022-11-30T21:29:15.197Z,6.28
2022-11-30T21:31:42.803Z,6.72
2022-11-30T21:34:10.109Z,7.50
2022-11-30T21:36:37.216Z,6.45
2022-11-30T21:39:07.468Z,6.35
2022-11-30T21:41:37.147Z,6.10
2022-11-30T21:44:05.058Z,6.13
2022-11-30T21:46:32.549Z,8.50
2022-11-30T21:48:59.590Z,7.03
2022-11-30T21:51:28.185Z,8.10
2022-11-30T21:53:57.444Z,6.55
2022-11-30T21:56:29.982Z,6.38
2022-11-30T21:58:57.575Z,7.47
2022-11-30T22:01:26.024Z,6.93
2022-11-30T22:03:55.799Z,7.10
2022-11-30T22:06:24.062Z,6.95
2022-11-30T22:08:51.003Z,8.40
2022-11-30T22:11:20.211Z,9.93
2022-11-30T22:13:52.293Z,10.93
2022-11-30T22:16:20.629Z,8.35
2022-11-30T22:18:48.226Z,8.57
2022-11-30T22:21:19.715Z,9.25
2022-11-30T22:23:53.207Z,10.43
2022-11-30T22:26:22.474Z,11.03
2022-11-30T22:28:53.470Z,9.52
2022-11-30T22:31:23.660Z,8.88
2022-11-30T22:33:50.769Z,8.63
2022-11-30T22:36:20.071Z,12.63
2022-11-30T22:38:47.825Z,9.00
2022-11-30T22:41:17.032Z,9.48
2022-11-30T22:43:46.173Z,10.57
2022-11-30T22:46:19.094Z,11.80
2022-11-30T22:48:46.836Z,11.57
2022-11-30T22:51:19.678Z,14.32
2022-11-30T22:53:47.970Z,9.30
2022-11-30T22:56:20.311Z,11.68
2022-11-30T22:58:48.626Z,13.55
2022-11-30T23:01:18.283Z,11.85
2022-11-30T23:03:46.947Z,11.50
2022-11-30T23:06:15.583Z,11.00
2022-11-30T23:08:43.837Z,12.18
2022-11-30T23:11:13.549Z,12.30
2022-11-30T23:13:42.283Z,12.20
2022-11-30T23:16:10.785Z,11.98
2022-11-30T23:18:41.299Z,12.05
2022-11-30T23:21:18.896Z,13.25
2022-11-30T23:23:46.892Z,13.23
2022-11-30T23:26:17.856Z,11.95
2022-11-30T23:28:47.351Z,12.02
2022-11-30T23:31:34.113Z,16.10
2022-11-30T23:34:10.785Z,14.05
2022-11-30T23:36:38.151Z,15.35
2022-11-30T23:39:09.205Z,16.10
2022-11-30T23:41:36.484Z,13.15
2022-11-30T23:44:03.391Z,12.60
2022-11-30T23:46:30.787Z,12.98
2022-11-30T23:48:57.774Z,16.60
2022-11-30T23:51:24.606Z,15.55
2022-11-30T23:53:51.598Z,15.07
2022-11-30T23:56:20.451Z,16.52
2022-11-30T23:58:47.562Z,16.48
